N345PR KLXV-KASE
Flight info
| Callsign | N345PR |
|---|---|
| Flight time | 0h 17m |
| Altitude | 20000 |
| Route | DAVVY2 DAVVY DBL |
| Aircraft | B350/L-SBGRW/S |
Departure
| Time | 2026-04-26 01:17 |
|---|---|
| Airport | Lake County Airport (KLXV) |
Arrival
| Time | 2026-04-26 01:34 |
|---|---|
| Airport | Aspen-Pitkin County Airport (Sardy Field) (KASE) |
| Time | Latitude | Longitude | Altitude | Speed | Heading |
|---|---|---|---|---|---|
| 2026-04-26 01:08 | 39.22462 | -106.31637 | 9939 ft | 0 kts | 344° |
| 2026-04-26 01:12 | 39.22466 | -106.31639 | 9936 ft | 4 kts | 344° |
| 2026-04-26 01:12 | 39.22486 | -106.31688 | 9938 ft | 9 kts | 264° |
| 2026-04-26 01:12 | 39.22474 | -106.31747 | 9940 ft | 6 kts | 226° |
| 2026-04-26 01:13 | 39.22435 | -106.31749 | 9940 ft | 8 kts | 169° |
| 2026-04-26 01:13 | 39.22369 | -106.31733 | 9936 ft | 12 kts | 170° |
| 2026-04-26 01:13 | 39.22275 | -106.31715 | 9940 ft | 15 kts | 171° |
| 2026-04-26 01:13 | 39.22160 | -106.31689 | 9940 ft | 18 kts | 170° |
| 2026-04-26 01:14 | 39.22031 | -106.31661 | 9938 ft | 19 kts | 170° |
| 2026-04-26 01:14 | 39.21898 | -106.31633 | 9932 ft | 19 kts | 172° |
| 2026-04-26 01:14 | 39.21766 | -106.31609 | 9934 ft | 19 kts | 174° |
| 2026-04-26 01:14 | 39.21639 | -106.31576 | 9928 ft | 18 kts | 169° |
| 2026-04-26 01:15 | 39.21517 | -106.31550 | 9932 ft | 17 kts | 170° |
| 2026-04-26 01:15 | 39.21402 | -106.31524 | 9931 ft | 17 kts | 169° |
| 2026-04-26 01:15 | 39.21289 | -106.31500 | 9928 ft | 15 kts | 170° |
| 2026-04-26 01:15 | 39.21193 | -106.31477 | 9932 ft | 11 kts | 165° |
| 2026-04-26 01:16 | 39.21171 | -106.31397 | 9930 ft | 13 kts | 89° |
| 2026-04-26 01:16 | 39.21122 | -106.31356 | 9930 ft | 10 kts | 181° |
| 2026-04-26 01:16 | 39.21091 | -106.31417 | 9931 ft | 8 kts | 261° |
| 2026-04-26 01:16 | 39.21106 | -106.31462 | 9930 ft | 0 kts | 353° |
| 2026-04-26 01:17 | 39.21122 | -106.31464 | 9933 ft | 19 kts | 352° |
| 2026-04-26 01:17 | 39.21515 | -106.31552 | 9932 ft | 93 kts | 350° |
| 2026-04-26 01:17 | 39.22336 | -106.31728 | 10038 ft | 137 kts | 349° |
| 2026-04-26 01:17 | 39.23356 | -106.31907 | 10598 ft | 156 kts | 348° |
| 2026-04-26 01:18 | 39.24471 | -106.32130 | 11160 ft | 172 kts | 347° |
| 2026-04-26 01:18 | 39.25688 | -106.32390 | 11703 ft | 181 kts | 347° |
| 2026-04-26 01:18 | 39.26946 | -106.32695 | 12191 ft | 184 kts | 345° |
| 2026-04-26 01:18 | 39.28217 | -106.32834 | 12885 ft | 181 kts | 346° |
| 2026-04-26 01:19 | 39.29432 | -106.33038 | 13693 ft | 174 kts | 345° |
| 2026-04-26 01:19 | 39.30650 | -106.33192 | 14287 ft | 178 kts | 346° |
| 2026-04-26 01:19 | 39.31890 | -106.33341 | 14860 ft | 180 kts | 346° |
| 2026-04-26 01:19 | 39.33152 | -106.33499 | 15438 ft | 184 kts | 346° |
| 2026-04-26 01:20 | 39.34435 | -106.33658 | 16011 ft | 187 kts | 347° |
| 2026-04-26 01:20 | 39.35737 | -106.33817 | 16578 ft | 189 kts | 346° |
| 2026-04-26 01:20 | 39.37062 | -106.33981 | 17133 ft | 193 kts | 347° |
| 2026-04-26 01:20 | 39.38404 | -106.34146 | 17697 ft | 195 kts | 347° |
| 2026-04-26 01:21 | 39.39767 | -106.34315 | 18254 ft | 197 kts | 346° |
| 2026-04-26 01:21 | 39.41144 | -106.34484 | 18724 ft | 200 kts | 346° |
| 2026-04-26 01:21 | 39.42531 | -106.34654 | 19218 ft | 201 kts | 346° |
| 2026-04-26 01:21 | 39.43909 | -106.34826 | 19679 ft | 202 kts | 345° |
| 2026-04-26 01:22 | 39.45375 | -106.35016 | 19853 ft | 225 kts | 345° |
| 2026-04-26 01:22 | 39.47026 | -106.35228 | 19852 ft | 251 kts | 347° |
| 2026-04-26 01:22 | 39.48805 | -106.35602 | 19839 ft | 264 kts | 335° |
| 2026-04-26 01:22 | 39.50484 | -106.36618 | 19818 ft | 270 kts | 319° |
| 2026-04-26 01:23 | 39.51793 | -106.38321 | 19812 ft | 267 kts | 294° |
| 2026-04-26 01:23 | 39.52480 | -106.40563 | 19789 ft | 269 kts | 278° |
| 2026-04-26 01:23 | 39.52652 | -106.42965 | 19780 ft | 269 kts | 263° |
| 2026-04-26 01:23 | 39.52289 | -106.45337 | 19774 ft | 271 kts | 252° |
| 2026-04-26 01:24 | 39.51754 | -106.47689 | 19774 ft | 273 kts | 253° |
| 2026-04-26 01:24 | 39.51299 | -106.50086 | 19768 ft | 275 kts | 256° |
| 2026-04-26 01:24 | 39.50875 | -106.52516 | 19753 ft | 278 kts | 255° |
| 2026-04-26 01:24 | 39.50427 | -106.54952 | 19753 ft | 280 kts | 254° |
| 2026-04-26 01:25 | 39.49962 | -106.57406 | 19763 ft | 281 kts | 255° |
| 2026-04-26 01:25 | 39.49509 | -106.59832 | 19776 ft | 281 kts | 254° |
| 2026-04-26 01:25 | 39.49046 | -106.62309 | 19775 ft | 283 kts | 255° |
| 2026-04-26 01:25 | 39.48585 | -106.64788 | 19727 ft | 285 kts | 255° |
| 2026-04-26 01:26 | 39.48115 | -106.67292 | 19361 ft | 288 kts | 255° |
| 2026-04-26 01:26 | 39.47643 | -106.69806 | 18938 ft | 287 kts | 254° |
| 2026-04-26 01:26 | 39.47171 | -106.72325 | 18525 ft | 289 kts | 254° |
| 2026-04-26 01:26 | 39.46696 | -106.74854 | 18107 ft | 290 kts | 254° |
| 2026-04-26 01:27 | 39.46220 | -106.77390 | 17645 ft | 290 kts | 254° |
| 2026-04-26 01:27 | 39.45740 | -106.79927 | 17167 ft | 290 kts | 254° |
| 2026-04-26 01:27 | 39.45264 | -106.82459 | 16705 ft | 289 kts | 254° |
| 2026-04-26 01:27 | 39.44788 | -106.84987 | 16254 ft | 290 kts | 254° |
| 2026-04-26 01:28 | 39.44362 | -106.87539 | 15790 ft | 290 kts | 262° |
| 2026-04-26 01:28 | 39.44664 | -106.90115 | 15366 ft | 295 kts | 286° |
| 2026-04-26 01:28 | 39.45545 | -106.92516 | 14949 ft | 297 kts | 291° |
| 2026-04-26 01:28 | 39.46255 | -106.94968 | 14511 ft | 284 kts | 279° |
| 2026-04-26 01:29 | 39.46234 | -106.97420 | 14215 ft | 265 kts | 253° |
| 2026-04-26 01:29 | 39.45496 | -106.99513 | 13935 ft | 252 kts | 234° |
| 2026-04-26 01:29 | 39.44273 | -107.01055 | 13627 ft | 242 kts | 214° |
| 2026-04-26 01:29 | 39.42768 | -107.01966 | 13310 ft | 238 kts | 199° |
| 2026-04-26 01:30 | 39.41146 | -107.02209 | 13028 ft | 240 kts | 181° |
| 2026-04-26 01:30 | 39.39522 | -107.01764 | 12895 ft | 237 kts | 164° |
| 2026-04-26 01:30 | 39.38080 | -107.00699 | 12575 ft | 245 kts | 146° |
| 2026-04-26 01:30 | 39.36889 | -106.99086 | 12200 ft | 250 kts | 136° |
| 2026-04-26 01:31 | 39.35739 | -106.97408 | 11861 ft | 247 kts | 137° |
| 2026-04-26 01:31 | 39.34615 | -106.95783 | 11648 ft | 240 kts | 136° |
| 2026-04-26 01:31 | 39.33506 | -106.94181 | 11299 ft | 239 kts | 136° |
| 2026-04-26 01:31 | 39.32454 | -106.92649 | 10912 ft | 215 kts | 136° |
| 2026-04-26 01:32 | 39.31455 | -106.91406 | 10770 ft | 181 kts | 152° |
| 2026-04-26 01:32 | 39.30418 | -106.90736 | 10464 ft | 154 kts | 168° |
| 2026-04-26 01:32 | 39.29424 | -106.90290 | 10149 ft | 147 kts | 165° |
| 2026-04-26 01:32 | 39.28495 | -106.89836 | 9864 ft | 140 kts | 161° |
| 2026-04-26 01:33 | 39.27603 | -106.89406 | 9541 ft | 134 kts | 160° |
| 2026-04-26 01:33 | 39.26763 | -106.88997 | 9134 ft | 130 kts | 162° |
| 2026-04-26 01:33 | 39.25901 | -106.88538 | 8691 ft | 140 kts | 166° |
| 2026-04-26 01:33 | 39.24983 | -106.88139 | 8292 ft | 135 kts | 167° |
| 2026-04-26 01:34 | 39.24130 | -106.87742 | 7936 ft | 125 kts | 164° |
| 2026-04-26 01:34 | 39.23302 | -106.87352 | 7746 ft | 125 kts | 165° |
| 2026-04-26 01:34 | 39.22597 | -106.87025 | 7734 ft | 69 kts | 159° |
| 2026-04-26 01:34 | 39.22369 | -106.86910 | 7749 ft | 21 kts | 155° |
| 2026-04-26 01:35 | 39.22333 | -106.86796 | 7755 ft | 13 kts | 102° |
| 2026-04-26 01:35 | 39.22279 | -106.86749 | 7760 ft | 7 kts | 158° |
| 2026-04-26 01:35 | 39.22255 | -106.86726 | 7762 ft | 3 kts | 108° |
| 2026-04-26 01:35 | 39.22262 | -106.86691 | 7763 ft | 7 kts | 69° |
| 2026-04-26 01:36 | 39.22253 | -106.86660 | 7758 ft | 2 kts | 248° |
| 2026-04-26 01:36 | 39.22253 | -106.86661 | 7758 ft | 0 kts | 251° |